sensor_id;sensor_type;location;lat;lon;timestamp;P1;durP1;ratioP1;P2;durP2;ratioP2
13102;SDS011;52970;46.752;17.108;2023-06-24T00:01:16;8.75;;;6.80;;
13102;SDS011;52970;46.752;17.108;2023-06-24T00:03:41;8.35;;;6.88;;
13102;SDS011;52970;46.752;17.108;2023-06-24T00:06:11;7.53;;;6.28;;
13102;SDS011;52970;46.752;17.108;2023-06-24T00:08:43;7.97;;;6.30;;
13102;SDS011;52970;46.752;17.108;2023-06-24T00:11:09;7.22;;;6.50;;
13102;SDS011;52970;46.752;17.108;2023-06-24T00:13:34;7.47;;;6.15;;
13102;SDS011;52970;46.752;17.108;2023-06-24T00:15:59;7.43;;;6.30;;
13102;SDS011;52970;46.752;17.108;2023-06-24T00:18:24;6.63;;;5.93;;
13102;SDS011;52970;46.752;17.108;2023-06-24T00:20:54;8.38;;;6.03;;
13102;SDS011;52970;46.752;17.108;2023-06-24T00:23:21;7.45;;;5.63;;
13102;SDS011;52970;46.752;17.108;2023-06-24T00:25:50;8.15;;;5.32;;
13102;SDS011;52970;46.752;17.108;2023-06-24T00:28:15;7.65;;;6.00;;
13102;SDS011;52970;46.752;17.108;2023-06-24T00:30:40;9.02;;;6.30;;
13102;SDS011;52970;46.752;17.108;2023-06-24T00:33:06;6.80;;;5.47;;
13102;SDS011;52970;46.752;17.108;2023-06-24T00:35:34;7.03;;;4.95;;
13102;SDS011;52970;46.752;17.108;2023-06-24T00:37:59;7.45;;;6.15;;
13102;SDS011;52970;46.752;17.108;2023-06-24T00:40:24;12.10;;;6.45;;
13102;SDS011;52970;46.752;17.108;2023-06-24T00:42:50;6.53;;;5.78;;
13102;SDS011;52970;46.752;17.108;2023-06-24T00:45:15;7.50;;;5.35;;
13102;SDS011;52970;46.752;17.108;2023-06-24T00:47:43;7.03;;;5.40;;
13102;SDS011;52970;46.752;17.108;2023-06-24T00:50:08;6.40;;;5.05;;
13102;SDS011;52970;46.752;17.108;2023-06-24T00:52:33;9.05;;;5.60;;
13102;SDS011;52970;46.752;17.108;2023-06-24T00:55:02;7.55;;;5.45;;
13102;SDS011;52970;46.752;17.108;2023-06-24T00:57:27;6.88;;;5.38;;
13102;SDS011;52970;46.752;17.108;2023-06-24T00:59:54;8.05;;;5.20;;
13102;SDS011;52970;46.752;17.108;2023-06-24T01:02:21;7.93;;;5.20;;
13102;SDS011;52970;46.752;17.108;2023-06-24T01:04:48;6.53;;;4.93;;
13102;SDS011;52970;46.752;17.108;2023-06-24T01:07:13;10.52;;;5.80;;
13102;SDS011;52970;46.752;17.108;2023-06-24T01:09:39;7.05;;;4.68;;
13102;SDS011;52970;46.752;17.108;2023-06-24T01:12:04;5.43;;;4.93;;
13102;SDS011;52970;46.752;17.108;2023-06-24T01:14:31;6.10;;;5.35;;
13102;SDS011;52970;46.752;17.108;2023-06-24T01:17:32;7.25;;;5.00;;
13102;SDS011;52970;46.752;17.108;2023-06-24T01:25:05;5.18;;;3.90;;
13102;SDS011;52970;46.752;17.108;2023-06-24T01:30:22;5.68;;;3.58;;
13102;SDS011;52970;46.752;17.108;2023-06-24T01:32:54;3.42;;;3.13;;
13102;SDS011;52970;46.752;17.108;2023-06-24T01:35:21;3.38;;;3.15;;
13102;SDS011;52970;46.752;17.108;2023-06-24T01:37:49;5.43;;;3.10;;
13102;SDS011;52970;46.752;17.108;2023-06-24T01:42:49;3.70;;;2.85;;
13102;SDS011;52970;46.752;17.108;2023-06-24T01:45:16;5.78;;;2.88;;
13102;SDS011;52970;46.752;17.108;2023-06-24T01:47:43;3.25;;;2.42;;
13102;SDS011;52970;46.752;17.108;2023-06-24T01:50:10;3.42;;;2.20;;
13102;SDS011;52970;46.752;17.108;2023-06-24T01:52:36;4.25;;;2.35;;
13102;SDS011;52970;46.752;17.108;2023-06-24T01:55:02;2.40;;;2.20;;
13102;SDS011;52970;46.752;17.108;2023-06-24T01:57:29;2.20;;;2.03;;
13102;SDS011;52970;46.752;17.108;2023-06-24T01:59:56;3.20;;;2.03;;
13102;SDS011;52970;46.752;17.108;2023-06-24T02:02:21;2.95;;;2.08;;
13102;SDS011;52970;46.752;17.108;2023-06-24T02:04:48;2.80;;;1.90;;
13102;SDS011;52970;46.752;17.108;2023-06-24T02:07:13;3.70;;;2.00;;
13102;SDS011;52970;46.752;17.108;2023-06-24T02:09:40;1.90;;;1.80;;
13102;SDS011;52970;46.752;17.108;2023-06-24T02:12:05;1.63;;;1.52;;
13102;SDS011;52970;46.752;17.108;2023-06-24T02:14:32;2.15;;;1.83;;
13102;SDS011;52970;46.752;17.108;2023-06-24T02:16:59;1.73;;;1.63;;
13102;SDS011;52970;46.752;17.108;2023-06-24T02:19:27;2.72;;;1.60;;
13102;SDS011;52970;46.752;17.108;2023-06-24T02:21:54;2.10;;;1.60;;
13102;SDS011;52970;46.752;17.108;2023-06-24T02:24:19;2.75;;;1.60;;
13102;SDS011;52970;46.752;17.108;2023-06-24T02:26:45;1.60;;;1.50;;
13102;SDS011;52970;46.752;17.108;2023-06-24T02:29:12;2.42;;;1.70;;
13102;SDS011;52970;46.752;17.108;2023-06-24T02:31:37;2.80;;;1.83;;
13102;SDS011;52970;46.752;17.108;2023-06-24T02:34:02;2.00;;;1.52;;
13102;SDS011;52970;46.752;17.108;2023-06-24T02:36:28;1.70;;;1.60;;
13102;SDS011;52970;46.752;17.108;2023-06-24T02:38:53;1.60;;;1.50;;
13102;SDS011;52970;46.752;17.108;2023-06-24T02:41:18;2.38;;;1.50;;
13102;SDS011;52970;46.752;17.108;2023-06-24T02:43:43;3.40;;;1.38;;
13102;SDS011;52970;46.752;17.108;2023-06-24T02:46:09;1.40;;;1.30;;
13102;SDS011;52970;46.752;17.108;2023-06-24T02:48:35;1.70;;;1.55;;
13102;SDS011;52970;46.752;17.108;2023-06-24T02:51:02;3.92;;;1.52;;
13102;SDS011;52970;46.752;17.108;2023-06-24T02:53:27;1.58;;;1.50;;
13102;SDS011;52970;46.752;17.108;2023-06-24T02:55:53;1.50;;;1.40;;
13102;SDS011;52970;46.752;17.108;2023-06-24T02:58:19;2.38;;;1.58;;
13102;SDS011;52970;46.752;17.108;2023-06-24T03:00:45;1.67;;;1.40;;
13102;SDS011;52970;46.752;17.108;2023-06-24T03:03:10;2.50;;;1.67;;
13102;SDS011;52970;46.752;17.108;2023-06-24T03:05:36;1.73;;;1.60;;
13102;SDS011;52970;46.752;17.108;2023-06-24T03:08:01;2.42;;;1.50;;
13102;SDS011;52970;46.752;17.108;2023-06-24T03:10:29;1.75;;;1.40;;
13102;SDS011;52970;46.752;17.108;2023-06-24T03:12:54;2.13;;;1.50;;
13102;SDS011;52970;46.752;17.108;2023-06-24T03:15:19;2.03;;;1.38;;
13102;SDS011;52970;46.752;17.108;2023-06-24T03:17:45;4.00;;;1.50;;
13102;SDS011;52970;46.752;17.108;2023-06-24T03:20:10;2.50;;;1.60;;
13102;SDS011;52970;46.752;17.108;2023-06-24T03:22:36;2.28;;;1.80;;
13102;SDS011;52970;46.752;17.108;2023-06-24T03:25:01;3.95;;;1.73;;
13102;SDS011;52970;46.752;17.108;2023-06-24T03:27:26;2.70;;;1.90;;
13102;SDS011;52970;46.752;17.108;2023-06-24T03:29:52;5.05;;;1.77;;
13102;SDS011;52970;46.752;17.108;2023-06-24T03:32:17;2.90;;;1.75;;
13102;SDS011;52970;46.752;17.108;2023-06-24T03:34:42;2.17;;;1.77;;
13102;SDS011;52970;46.752;17.108;2023-06-24T03:37:08;2.60;;;1.67;;
13102;SDS011;52970;46.752;17.108;2023-06-24T03:39:33;2.65;;;1.60;;
13102;SDS011;52970;46.752;17.108;2023-06-24T03:41:58;4.82;;;1.63;;
13102;SDS011;52970;46.752;17.108;2023-06-24T03:44:23;2.85;;;1.70;;
13102;SDS011;52970;46.752;17.108;2023-06-24T03:46:49;2.40;;;1.63;;
13102;SDS011;52970;46.752;17.108;2023-06-24T03:49:14;3.33;;;1.38;;
13102;SDS011;52970;46.752;17.108;2023-06-24T03:51:39;1.83;;;1.50;;
13102;SDS011;52970;46.752;17.108;2023-06-24T03:54:04;4.38;;;1.50;;
13102;SDS011;52970;46.752;17.108;2023-06-24T03:56:30;2.38;;;1.30;;
13102;SDS011;52970;46.752;17.108;2023-06-24T03:58:55;2.70;;;1.40;;
13102;SDS011;52970;46.752;17.108;2023-06-24T04:01:20;2.05;;;1.85;;
13102;SDS011;52970;46.752;17.108;2023-06-24T04:03:46;3.58;;;1.67;;
13102;SDS011;52970;46.752;17.108;2023-06-24T04:06:11;1.52;;;1.42;;
13102;SDS011;52970;46.752;17.108;2023-06-24T04:08:36;3.15;;;1.50;;
13102;SDS011;52970;46.752;17.108;2023-06-24T04:11:05;1.50;;;1.30;;
13102;SDS011;52970;46.752;17.108;2023-06-24T04:13:31;3.88;;;1.30;;
13102;SDS011;52970;46.752;17.108;2023-06-24T04:15:56;2.67;;;1.55;;
13102;SDS011;52970;46.752;17.108;2023-06-24T04:18:21;4.15;;;1.38;;
13102;SDS011;52970;46.752;17.108;2023-06-24T04:20:47;2.25;;;1.60;;
13102;SDS011;52970;46.752;17.108;2023-06-24T04:23:12;1.93;;;1.83;;
13102;SDS011;52970;46.752;17.108;2023-06-24T04:25:39;4.30;;;1.80;;
13102;SDS011;52970;46.752;17.108;2023-06-24T04:28:04;5.07;;;2.05;;
13102;SDS011;52970;46.752;17.108;2023-06-24T04:30:30;7.53;;;2.03;;
13102;SDS011;52970;46.752;17.108;2023-06-24T04:32:56;2.88;;;1.73;;
13102;SDS011;52970;46.752;17.108;2023-06-24T04:35:21;2.25;;;2.05;;
13102;SDS011;52970;46.752;17.108;2023-06-24T04:37:46;3.63;;;2.40;;
13102;SDS011;52970;46.752;17.108;2023-06-24T04:40:11;3.88;;;2.08;;
13102;SDS011;52970;46.752;17.108;2023-06-24T04:42:38;1.98;;;1.85;;
13102;SDS011;52970;46.752;17.108;2023-06-24T04:45:03;2.92;;;2.15;;
13102;SDS011;52970;46.752;17.108;2023-06-24T04:47:30;3.78;;;2.30;;
13102;SDS011;52970;46.752;17.108;2023-06-24T04:49:55;4.00;;;1.90;;
13102;SDS011;52970;46.752;17.108;2023-06-24T04:52:22;1.85;;;1.75;;
13102;SDS011;52970;46.752;17.108;2023-06-24T04:54:48;1.83;;;1.65;;
13102;SDS011;52970;46.752;17.108;2023-06-24T04:57:23;2.30;;;1.70;;
13102;SDS011;52970;46.752;17.108;2023-06-24T04:59:48;3.15;;;1.50;;
13102;SDS011;52970;46.752;17.108;2023-06-24T05:02:13;6.47;;;1.83;;
13102;SDS011;52970;46.752;17.108;2023-06-24T05:04:39;1.98;;;1.65;;
13102;SDS011;52970;46.752;17.108;2023-06-24T05:07:04;3.47;;;1.60;;
13102;SDS011;52970;46.752;17.108;2023-06-24T05:09:29;3.92;;;1.63;;
13102;SDS011;52970;46.752;17.108;2023-06-24T05:11:55;4.90;;;1.80;;
13102;SDS011;52970;46.752;17.108;2023-06-24T05:14:20;2.05;;;1.50;;
13102;SDS011;52970;46.752;17.108;2023-06-24T05:16:45;1.80;;;1.70;;
13102;SDS011;52970;46.752;17.108;2023-06-24T05:19:10;3.15;;;1.85;;
13102;SDS011;52970;46.752;17.108;2023-06-24T05:21:36;1.63;;;1.52;;
13102;SDS011;52970;46.752;17.108;2023-06-24T05:24:01;5.22;;;1.80;;
13102;SDS011;52970;46.752;17.108;2023-06-24T05:26:26;2.22;;;1.42;;
13102;SDS011;52970;46.752;17.108;2023-06-24T05:28:52;3.40;;;1.60;;
13102;SDS011;52970;46.752;17.108;2023-06-24T05:31:17;2.53;;;1.45;;
13102;SDS011;52970;46.752;17.108;2023-06-24T05:33:43;3.03;;;1.83;;
13102;SDS011;52970;46.752;17.108;2023-06-24T05:36:08;1.80;;;1.70;;
13102;SDS011;52970;46.752;17.108;2023-06-24T05:38:33;4.38;;;1.50;;
13102;SDS011;52970;46.752;17.108;2023-06-24T05:40:59;1.50;;;1.40;;
13102;SDS011;52970;46.752;17.108;2023-06-24T05:43:25;1.98;;;1.70;;
13102;SDS011;52970;46.752;17.108;2023-06-24T05:45:50;3.13;;;1.60;;
13102;SDS011;52970;46.752;17.108;2023-06-24T05:48:16;1.50;;;1.40;;
13102;SDS011;52970;46.752;17.108;2023-06-24T05:50:41;3.72;;;1.80;;
13102;SDS011;52970;46.752;17.108;2023-06-24T05:53:06;2.13;;;1.60;;
13102;SDS011;52970;46.752;17.108;2023-06-24T05:55:31;1.70;;;1.60;;
13102;SDS011;52970;46.752;17.108;2023-06-24T05:57:57;3.75;;;1.30;;
13102;SDS011;52970;46.752;17.108;2023-06-24T06:00:22;1.30;;;1.30;;
13102;SDS011;52970;46.752;17.108;2023-06-24T06:02:47;1.90;;;1.52;;
13102;SDS011;52970;46.752;17.108;2023-06-24T06:05:13;2.53;;;1.70;;
13102;SDS011;52970;46.752;17.108;2023-06-24T06:07:38;2.53;;;1.40;;
13102;SDS011;52970;46.752;17.108;2023-06-24T06:10:05;1.52;;;1.42;;
13102;SDS011;52970;46.752;17.108;2023-06-24T06:12:31;2.33;;;1.48;;
13102;SDS011;52970;46.752;17.108;2023-06-24T06:14:56;2.00;;;1.65;;
13102;SDS011;52970;46.752;17.108;2023-06-24T06:17:23;1.80;;;1.60;;
13102;SDS011;52970;46.752;17.108;2023-06-24T06:19:48;1.85;;;1.70;;
13102;SDS011;52970;46.752;17.108;2023-06-24T06:22:14;1.48;;;1.30;;
13102;SDS011;52970;46.752;17.108;2023-06-24T06:24:40;1.25;;;1.25;;
13102;SDS011;52970;46.752;17.108;2023-06-24T06:27:09;3.13;;;1.52;;
13102;SDS011;52970;46.752;17.108;2023-06-24T06:29:34;2.45;;;1.17;;
13102;SDS011;52970;46.752;17.108;2023-06-24T06:31:59;1.98;;;1.60;;
13102;SDS011;52970;46.752;17.108;2023-06-24T06:34:24;1.63;;;1.52;;
13102;SDS011;52970;46.752;17.108;2023-06-24T06:36:49;5.65;;;1.90;;
13102;SDS011;52970;46.752;17.108;2023-06-24T06:39:15;4.63;;;2.20;;
13102;SDS011;52970;46.752;17.108;2023-06-24T06:41:41;2.95;;;1.80;;
13102;SDS011;52970;46.752;17.108;2023-06-24T06:44:06;5.33;;;2.40;;
13102;SDS011;52970;46.752;17.108;2023-06-24T06:46:32;3.70;;;2.33;;
13102;SDS011;52970;46.752;17.108;2023-06-24T06:48:57;2.67;;;1.80;;
13102;SDS011;52970;46.752;17.108;2023-06-24T06:51:23;2.83;;;1.70;;
13102;SDS011;52970;46.752;17.108;2023-06-24T06:53:49;1.70;;;1.60;;
13102;SDS011;52970;46.752;17.108;2023-06-24T06:56:33;1.85;;;1.70;;
13102;SDS011;52970;46.752;17.108;2023-06-24T06:58:58;2.08;;;1.40;;
13102;SDS011;52970;46.752;17.108;2023-06-24T07:01:23;3.30;;;1.70;;
13102;SDS011;52970;46.752;17.108;2023-06-24T07:03:49;2.63;;;1.80;;
13102;SDS011;52970;46.752;17.108;2023-06-24T07:06:14;1.75;;;1.65;;
13102;SDS011;52970;46.752;17.108;2023-06-24T07:08:40;2.88;;;1.65;;
13102;SDS011;52970;46.752;17.108;2023-06-24T07:11:05;3.58;;;1.88;;
13102;SDS011;52970;46.752;17.108;2023-06-24T07:13:30;7.32;;;2.33;;
13102;SDS011;52970;46.752;17.108;2023-06-24T07:15:56;3.10;;;2.00;;
13102;SDS011;52970;46.752;17.108;2023-06-24T07:18:21;3.42;;;2.25;;
13102;SDS011;52970;46.752;17.108;2023-06-24T07:20:46;3.33;;;1.92;;
13102;SDS011;52970;46.752;17.108;2023-06-24T07:23:11;1.85;;;1.75;;
13102;SDS011;52970;46.752;17.108;2023-06-24T07:25:37;2.67;;;2.05;;
13102;SDS011;52970;46.752;17.108;2023-06-24T07:28:02;3.47;;;2.03;;
13102;SDS011;52970;46.752;17.108;2023-06-24T07:30:27;2.85;;;2.53;;
13102;SDS011;52970;46.752;17.108;2023-06-24T07:32:53;2.97;;;2.03;;
13102;SDS011;52970;46.752;17.108;2023-06-24T07:35:18;2.30;;;2.10;;
13102;SDS011;52970;46.752;17.108;2023-06-24T07:37:44;2.30;;;2.10;;
13102;SDS011;52970;46.752;17.108;2023-06-24T07:40:09;4.63;;;2.40;;
13102;SDS011;52970;46.752;17.108;2023-06-24T07:42:35;4.97;;;2.20;;
13102;SDS011;52970;46.752;17.108;2023-06-24T07:45:00;3.38;;;2.30;;
13102;SDS011;52970;46.752;17.108;2023-06-24T07:47:25;3.15;;;2.35;;
13102;SDS011;52970;46.752;17.108;2023-06-24T07:49:51;2.85;;;2.08;;
13102;SDS011;52970;46.752;17.108;2023-06-24T07:52:16;2.80;;;2.33;;
13102;SDS011;52970;46.752;17.108;2023-06-24T07:54:42;4.57;;;2.30;;
13102;SDS011;52970;46.752;17.108;2023-06-24T07:57:07;2.78;;;2.40;;
13102;SDS011;52970;46.752;17.108;2023-06-24T07:59:32;4.70;;;2.67;;
13102;SDS011;52970;46.752;17.108;2023-06-24T08:01:57;3.55;;;2.42;;
13102;SDS011;52970;46.752;17.108;2023-06-24T08:04:23;3.70;;;2.60;;
13102;SDS011;52970;46.752;17.108;2023-06-24T08:06:49;3.10;;;2.80;;
13102;SDS011;52970;46.752;17.108;2023-06-24T08:09:15;2.63;;;2.42;;
13102;SDS011;52970;46.752;17.108;2023-06-24T08:11:40;4.38;;;2.72;;
13102;SDS011;52970;46.752;17.108;2023-06-24T08:14:06;2.70;;;2.50;;
13102;SDS011;52970;46.752;17.108;2023-06-24T08:16:32;3.03;;;2.72;;
13102;SDS011;52970;46.752;17.108;2023-06-24T08:18:57;3.35;;;3.05;;
13102;SDS011;52970;46.752;17.108;2023-06-24T08:21:22;3.00;;;2.70;;
13102;SDS011;52970;46.752;17.108;2023-06-24T08:23:47;6.90;;;3.25;;
13102;SDS011;52970;46.752;17.108;2023-06-24T08:26:15;4.53;;;2.60;;
13102;SDS011;52970;46.752;17.108;2023-06-24T08:28:40;3.08;;;2.40;;
13102;SDS011;52970;46.752;17.108;2023-06-24T08:31:05;2.40;;;2.20;;
13102;SDS011;52970;46.752;17.108;2023-06-24T08:33:31;3.00;;;2.28;;
13102;SDS011;52970;46.752;17.108;2023-06-24T08:35:56;3.42;;;2.60;;
13102;SDS011;52970;46.752;17.108;2023-06-24T08:38:21;3.40;;;2.33;;
13102;SDS011;52970;46.752;17.108;2023-06-24T08:40:46;3.78;;;2.88;;
13102;SDS011;52970;46.752;17.108;2023-06-24T08:43:14;2.85;;;2.55;;
13102;SDS011;52970;46.752;17.108;2023-06-24T08:45:40;2.80;;;2.47;;
13102;SDS011;52970;46.752;17.108;2023-06-24T08:48:05;2.50;;;2.30;;
13102;SDS011;52970;46.752;17.108;2023-06-24T08:50:33;3.63;;;2.25;;
13102;SDS011;52970;46.752;17.108;2023-06-24T08:52:59;3.03;;;2.22;;
13102;SDS011;52970;46.752;17.108;2023-06-24T08:55:28;2.33;;;2.13;;
13102;SDS011;52970;46.752;17.108;2023-06-24T08:57:56;2.20;;;2.10;;
13102;SDS011;52970;46.752;17.108;2023-06-24T09:00:21;2.38;;;2.13;;
13102;SDS011;52970;46.752;17.108;2023-06-24T09:02:47;3.22;;;2.30;;
13102;SDS011;52970;46.752;17.108;2023-06-24T09:05:12;2.38;;;2.17;;
13102;SDS011;52970;46.752;17.108;2023-06-24T09:07:37;2.38;;;2.20;;
13102;SDS011;52970;46.752;17.108;2023-06-24T09:10:03;2.25;;;1.90;;
13102;SDS011;52970;46.752;17.108;2023-06-24T09:12:31;2.20;;;2.10;;
13102;SDS011;52970;46.752;17.108;2023-06-24T09:14:56;2.30;;;1.80;;
13102;SDS011;52970;46.752;17.108;2023-06-24T09:17:21;2.92;;;1.80;;
13102;SDS011;52970;46.752;17.108;2023-06-24T09:19:47;2.50;;;1.80;;
13102;SDS011;52970;46.752;17.108;2023-06-24T09:22:12;2.00;;;1.60;;
13102;SDS011;52970;46.752;17.108;2023-06-24T09:24:42;2.35;;;1.70;;
13102;SDS011;52970;46.752;17.108;2023-06-24T09:27:10;2.10;;;1.50;;
13102;SDS011;52970;46.752;17.108;2023-06-24T09:29:36;2.60;;;1.63;;
13102;SDS011;52970;46.752;17.108;2023-06-24T09:32:04;1.58;;;1.48;;
13102;SDS011;52970;46.752;17.108;2023-06-24T09:34:30;1.70;;;1.60;;
13102;SDS011;52970;46.752;17.108;2023-06-24T09:36:56;1.50;;;1.42;;
13102;SDS011;52970;46.752;17.108;2023-06-24T09:39:22;1.70;;;1.60;;
13102;SDS011;52970;46.752;17.108;2023-06-24T09:41:53;4.90;;;1.52;;
13102;SDS011;52970;46.752;17.108;2023-06-24T09:44:18;1.77;;;1.67;;
13102;SDS011;52970;46.752;17.108;2023-06-24T09:46:45;1.70;;;1.60;;
13102;SDS011;52970;46.752;17.108;2023-06-24T09:49:12;1.17;;;1.10;;
13102;SDS011;52970;46.752;17.108;2023-06-24T09:51:38;2.47;;;1.35;;
13102;SDS011;52970;46.752;17.108;2023-06-24T09:54:07;0.98;;;0.98;;
13102;SDS011;52970;46.752;17.108;2023-06-24T09:56:36;1.02;;;0.80;;
13102;SDS011;52970;46.752;17.108;2023-06-24T09:59:04;3.70;;;0.80;;
13102;SDS011;52970;46.752;17.108;2023-06-24T10:01:30;1.38;;;1.38;;
13102;SDS011;52970;46.752;17.108;2023-06-24T10:03:57;0.50;;;0.50;;
13102;SDS011;52970;46.752;17.108;2023-06-24T10:06:23;0.43;;;0.40;;
13102;SDS011;52970;46.752;17.108;2023-06-24T10:08:49;0.40;;;0.30;;
13102;SDS011;52970;46.752;17.108;2023-06-24T10:11:14;2.00;;;1.90;;
13102;SDS011;52970;46.752;17.108;2023-06-24T10:13:39;4.68;;;4.28;;
13102;SDS011;52970;46.752;17.108;2023-06-24T10:16:05;3.50;;;3.20;;
13102;SDS011;52970;46.752;17.108;2023-06-24T10:20:56;0.60;;;0.60;;
13102;SDS011;52970;46.752;17.108;2023-06-24T10:23:21;2.88;;;0.55;;
13102;SDS011;52970;46.752;17.108;2023-06-24T10:25:49;0.63;;;0.40;;
13102;SDS011;52970;46.752;17.108;2023-06-24T10:28:14;3.53;;;0.50;;
13102;SDS011;52970;46.752;17.108;2023-06-24T10:30:40;1.65;;;0.70;;
13102;SDS011;52970;46.752;17.108;2023-06-24T10:33:18;1.70;;;1.02;;
13102;SDS011;52970;46.752;17.108;2023-06-24T10:35:44;1.00;;;1.00;;
13102;SDS011;52970;46.752;17.108;2023-06-24T10:38:10;1.80;;;1.70;;
13102;SDS011;52970;46.752;17.108;2023-06-24T10:40:35;1.60;;;1.15;;
13102;SDS011;52970;46.752;17.108;2023-06-24T10:43:04;2.30;;;1.30;;
13102;SDS011;52970;46.752;17.108;2023-06-24T10:45:54;0.80;;;0.80;;
13102;SDS011;52970;46.752;17.108;2023-06-24T10:48:20;1.70;;;0.95;;
13102;SDS011;52970;46.752;17.108;2023-06-24T10:50:45;0.80;;;0.80;;
13102;SDS011;52970;46.752;17.108;2023-06-24T10:53:11;1.17;;;1.17;;
13102;SDS011;52970;46.752;17.108;2023-06-24T10:55:37;1.08;;;1.08;;
13102;SDS011;52970;46.752;17.108;2023-06-24T10:58:09;0.73;;;0.73;;
13102;SDS011;52970;46.752;17.108;2023-06-24T11:00:35;1.65;;;1.40;;
13102;SDS011;52970;46.752;17.108;2023-06-24T11:05:36;2.15;;;1.50;;
13102;SDS011;52970;46.752;17.108;2023-06-24T11:08:02;2.85;;;1.45;;
13102;SDS011;52970;46.752;17.108;2023-06-24T11:10:27;1.50;;;1.40;;
13102;SDS011;52970;46.752;17.108;2023-06-24T11:12:52;2.03;;;1.90;;
13102;SDS011;52970;46.752;17.108;2023-06-24T11:15:18;4.75;;;1.30;;
13102;SDS011;52970;46.752;17.108;2023-06-24T11:17:44;1.52;;;1.42;;
13102;SDS011;52970;46.752;17.108;2023-06-24T11:20:13;1.77;;;1.67;;
13102;SDS011;52970;46.752;17.108;2023-06-24T11:22:42;2.47;;;1.70;;
13102;SDS011;52970;46.752;17.108;2023-06-24T11:25:14;1.23;;;1.20;;
13102;SDS011;52970;46.752;17.108;2023-06-24T11:27:39;3.00;;;1.65;;
13102;SDS011;52970;46.752;17.108;2023-06-24T11:30:05;1.70;;;1.60;;
13102;SDS011;52970;46.752;17.108;2023-06-24T11:32:37;1.90;;;1.38;;
13102;SDS011;52970;46.752;17.108;2023-06-24T11:35:03;1.35;;;1.35;;
13102;SDS011;52970;46.752;17.108;2023-06-24T11:37:30;1.60;;;1.50;;
13102;SDS011;52970;46.752;17.108;2023-06-24T11:40:06;1.75;;;1.65;;
13102;SDS011;52970;46.752;17.108;2023-06-24T11:42:32;2.95;;;2.75;;
13102;SDS011;52970;46.752;17.108;2023-06-24T11:45:04;6.18;;;5.20;;
13102;SDS011;52970;46.752;17.108;2023-06-24T11:47:36;10.98;;;6.88;;
13102;SDS011;52970;46.752;17.108;2023-06-24T11:50:03;4.57;;;2.88;;
13102;SDS011;52970;46.752;17.108;2023-06-24T11:52:32;3.05;;;2.63;;
13102;SDS011;52970;46.752;17.108;2023-06-24T11:54:58;2.00;;;1.90;;
13102;SDS011;52970;46.752;17.108;2023-06-24T11:57:46;15.57;;;9.00;;
13102;SDS011;52970;46.752;17.108;2023-06-24T12:00:12;15.63;;;9.10;;
13102;SDS011;52970;46.752;17.108;2023-06-24T12:02:37;14.77;;;8.55;;
13102;SDS011;52970;46.752;17.108;2023-06-24T12:05:03;9.20;;;4.90;;
13102;SDS011;52970;46.752;17.108;2023-06-24T12:07:28;5.43;;;3.72;;
13102;SDS011;52970;46.752;17.108;2023-06-24T12:09:53;2.30;;;2.15;;
13102;SDS011;52970;46.752;17.108;2023-06-24T12:12:20;2.60;;;2.00;;
13102;SDS011;52970;46.752;17.108;2023-06-24T12:14:45;3.25;;;1.90;;
13102;SDS011;52970;46.752;17.108;2023-06-24T12:17:10;6.03;;;3.50;;
13102;SDS011;52970;46.752;17.108;2023-06-24T12:19:36;10.15;;;6.13;;
13102;SDS011;52970;46.752;17.108;2023-06-24T12:22:01;12.77;;;7.10;;
13102;SDS011;52970;46.752;17.108;2023-06-24T12:24:26;2.03;;;1.92;;
13102;SDS011;52970;46.752;17.108;2023-06-24T12:26:51;3.00;;;1.90;;
13102;SDS011;52970;46.752;17.108;2023-06-24T12:29:17;2.20;;;1.73;;
13102;SDS011;52970;46.752;17.108;2023-06-24T12:31:42;2.50;;;2.30;;
13102;SDS011;52970;46.752;17.108;2023-06-24T12:34:08;2.60;;;2.00;;
13102;SDS011;52970;46.752;17.108;2023-06-24T12:36:33;1.73;;;1.47;;
13102;SDS011;52970;46.752;17.108;2023-06-24T12:38:58;8.30;;;6.83;;
13102;SDS011;52970;46.752;17.108;2023-06-24T12:41:23;1.73;;;1.63;;
13102;SDS011;52970;46.752;17.108;2023-06-24T12:43:49;1.70;;;1.60;;
13102;SDS011;52970;46.752;17.108;2023-06-24T12:46:14;1.73;;;1.63;;
13102;SDS011;52970;46.752;17.108;2023-06-24T12:48:39;2.33;;;1.90;;
13102;SDS011;52970;46.752;17.108;2023-06-24T12:51:05;1.52;;;1.50;;
13102;SDS011;52970;46.752;17.108;2023-06-24T12:53:30;2.93;;;1.43;;
13102;SDS011;52970;46.752;17.108;2023-06-24T12:55:55;2.30;;;2.10;;
13102;SDS011;52970;46.752;17.108;2023-06-24T12:58:22;2.35;;;1.80;;
13102;SDS011;52970;46.752;17.108;2023-06-24T13:00:48;18.40;;;11.80;;
13102;SDS011;52970;46.752;17.108;2023-06-24T13:03:13;4.13;;;2.70;;
13102;SDS011;52970;46.752;17.108;2023-06-24T13:05:38;7.45;;;4.60;;
13102;SDS011;52970;46.752;17.108;2023-06-24T13:08:03;3.17;;;2.53;;
13102;SDS011;52970;46.752;17.108;2023-06-24T13:10:31;3.10;;;2.05;;
13102;SDS011;52970;46.752;17.108;2023-06-24T13:12:57;2.22;;;1.95;;
13102;SDS011;52970;46.752;17.108;2023-06-24T13:15:22;1.90;;;1.80;;
13102;SDS011;52970;46.752;17.108;2023-06-24T13:17:48;2.63;;;1.90;;
13102;SDS011;52970;46.752;17.108;2023-06-24T13:20:14;2.30;;;1.80;;
13102;SDS011;52970;46.752;17.108;2023-06-24T13:22:39;3.45;;;2.88;;
13102;SDS011;52970;46.752;17.108;2023-06-24T13:25:04;5.73;;;4.13;;
13102;SDS011;52970;46.752;17.108;2023-06-24T13:27:30;2.90;;;2.42;;
13102;SDS011;52970;46.752;17.108;2023-06-24T13:29:55;2.65;;;2.45;;
13102;SDS011;52970;46.752;17.108;2023-06-24T13:32:20;4.05;;;3.65;;
13102;SDS011;52970;46.752;17.108;2023-06-24T13:34:46;3.40;;;1.80;;
13102;SDS011;52970;46.752;17.108;2023-06-24T13:37:11;3.83;;;2.50;;
13102;SDS011;52970;46.752;17.108;2023-06-24T13:39:36;2.63;;;2.42;;
13102;SDS011;52970;46.752;17.108;2023-06-24T13:42:01;4.38;;;3.10;;
13102;SDS011;52970;46.752;17.108;2023-06-24T13:44:27;5.47;;;3.83;;
13102;SDS011;52970;46.752;17.108;2023-06-24T13:46:52;2.55;;;2.38;;
13102;SDS011;52970;46.752;17.108;2023-06-24T13:49:18;2.40;;;2.13;;
13102;SDS011;52970;46.752;17.108;2023-06-24T13:51:43;2.30;;;2.00;;
13102;SDS011;52970;46.752;17.108;2023-06-24T13:54:09;1.90;;;1.80;;
13102;SDS011;52970;46.752;17.108;2023-06-24T13:56:34;5.68;;;1.98;;
13102;SDS011;52970;46.752;17.108;2023-06-24T13:58:59;2.00;;;1.80;;
13102;SDS011;52970;46.752;17.108;2023-06-24T14:01:25;2.35;;;2.22;;
13102;SDS011;52970;46.752;17.108;2023-06-24T14:03:53;2.35;;;2.00;;
13102;SDS011;52970;46.752;17.108;2023-06-24T14:06:19;4.68;;;1.85;;
13102;SDS011;52970;46.752;17.108;2023-06-24T14:08:44;2.83;;;2.25;;
13102;SDS011;52970;46.752;17.108;2023-06-24T14:11:10;1.92;;;1.73;;
13102;SDS011;52970;46.752;17.108;2023-06-24T14:13:36;2.05;;;1.95;;
13102;SDS011;52970;46.752;17.108;2023-06-24T14:16:04;1.92;;;1.83;;
13102;SDS011;52970;46.752;17.108;2023-06-24T14:18:29;2.47;;;2.20;;
13102;SDS011;52970;46.752;17.108;2023-06-24T14:20:58;9.07;;;7.03;;
13102;SDS011;52970;46.752;17.108;2023-06-24T14:23:23;22.55;;;14.10;;
13102;SDS011;52970;46.752;17.108;2023-06-24T14:25:50;11.07;;;6.97;;
13102;SDS011;52970;46.752;17.108;2023-06-24T14:28:15;3.53;;;2.97;;
13102;SDS011;52970;46.752;17.108;2023-06-24T14:30:41;14.80;;;9.57;;
13102;SDS011;52970;46.752;17.108;2023-06-24T14:33:07;6.35;;;4.60;;
13102;SDS011;52970;46.752;17.108;2023-06-24T14:35:32;13.65;;;8.40;;
13102;SDS011;52970;46.752;17.108;2023-06-24T14:37:57;4.90;;;4.47;;
13102;SDS011;52970;46.752;17.108;2023-06-24T14:40:22;12.07;;;9.10;;
13102;SDS011;52970;46.752;17.108;2023-06-24T14:42:47;4.63;;;4.22;;